Terminal Aerodrome Forecast
Issued by NWS

Home | Current Version | Previous Version | Text Only | Print | Product List | Glossary On
Versions: 1 2 3 4 5 6 7 8 9 10 11 12 13 14 15 16 17 18 19 20 21 22 23 24 25 26
000
FTUS42 KGSP 040859 AAA
TAFGMU
TAF AMD
KGMU 040859Z 0409/0506 24006KT P6SM VCSH SCT035 BKN120
      TEMPO 0409/0412 5SM -SHRA BR BKN025
     FM041200 24009G17KT P6SM -SHRA VCTS BKN035CB
     FM041600 24014G22KT P6SM -SHRA BKN040 PROB30 0418/0422 4SM TSRA
      BKN030CB
     FM042200 24014G24KT P6SM VCTS BKN060CB
     FM050000 24009KT P6SM BKN200=

USA.gov is the U.S. government's official web portal to all federal, state and local government web resources and services.